Time;durP1;ratioP1;P1;durP2;ratioP2;P2;SDS_P1;SDS_P2;PMS_P1;PMS_P2;Temp;Humidity;BMP_temperature;BMP_pressure;BME280_temperature;BME280_humidity;BME280_pressure;Samples;Min_cycle;Max_cycle;Signal;HPM_P1;HPM_P2
2023/12/27 00:00:49;;;;;;;12.00;5.07;;;;;;;10.72;59.73;99246.81;5033664;28;20633;-82
2023/12/27 00:03:14;;;;;;;13.47;6.27;;;;;;;10.59;59.86;99250.97;5032997;28;20186;-82
2023/12/27 00:05:41;;;;;;;8.67;4.43;;;;;;;10.51;60.35;99253.16;5033268;28;20270;-82
2023/12/27 00:08:06;;;;;;;11.70;3.80;;;;;;;10.41;60.18;99261.47;5033021;28;20182;-83
2023/12/27 00:10:31;;;;;;;14.03;4.70;;;;;;;10.36;60.59;99260.84;5033421;28;20182;-82
2023/12/27 00:12:58;;;;;;;6.60;3.93;;;;;;;10.51;59.98;99258.41;5033213;28;20174;-82
2023/12/27 00:15:25;;;;;;;11.07;5.30;;;;;;;10.47;59.97;99253.31;5031961;28;20174;-82
2023/12/27 00:17:52;;;;;;;9.77;4.37;;;;;;;10.42;60.08;99260.56;5033021;28;20217;-82
2023/12/27 00:20:17;;;;;;;10.47;4.20;;;;;;;10.28;60.72;99268.25;5033030;28;20220;-82
2023/12/27 00:22:44;;;;;;;10.07;4.50;;;;;;;10.37;60.42;99267.81;5032842;28;20633;-83
2023/12/27 00:25:14;;;;;;;12.30;4.87;;;;;;;10.44;60.14;99269.19;5033059;28;20217;-82
2023/12/27 00:27:40;;;;;;;9.00;3.80;;;;;;;10.47;59.91;99263.81;5015468;28;20249;-82
2023/12/27 00:30:11;;;;;;;10.60;4.97;;;;;;;10.45;59.94;99268.25;5033306;28;20232;-82
2023/12/27 00:32:37;;;;;;;8.37;3.60;;;;;;;10.41;59.75;99273.72;5033232;28;20163;-82
2023/12/27 00:35:07;;;;;;;8.23;3.53;;;;;;;10.15;61.03;99272.38;5032634;28;20240;-82
2023/12/27 00:37:33;;;;;;;17.50;5.27;;;;;;;10.18;61.09;99272.25;5032326;28;20178;-82
2023/12/27 00:40:00;;;;;;;7.57;3.87;;;;;;;10.12;61.17;99266.41;5015616;28;20266;-82
2023/12/27 00:42:26;;;;;;;10.23;3.77;;;;;;;10.06;61.72;99264.97;5033267;28;20195;-82
2023/12/27 00:44:52;;;;;;;10.00;3.80;;;;;;;10.23;61.24;99266.78;5032727;28;20210;-82
2023/12/27 00:47:19;;;;;;;9.63;3.77;;;;;;;10.14;61.13;99254.97;5033161;28;20185;-82
2023/12/27 00:49:46;;;;;;;6.77;3.17;;;;;;;10.34;60.27;99267.97;5032794;28;20178;-82
2023/12/27 00:52:11;;;;;;;8.43;3.40;;;;;;;10.33;60.19;99266.25;5032992;28;20174;-82
2023/12/27 00:54:38;;;;;;;9.57;3.43;;;;;;;10.19;60.33;99276.56;5033101;28;20257;-82
2023/12/27 00:57:05;;;;;;;6.83;3.53;;;;;;;10.24;60.04;99276.34;5032572;28;20182;-82
2023/12/27 00:59:31;;;;;;;11.20;5.03;;;;;;;9.95;60.59;99274.25;5032803;28;20186;-82
2023/12/27 01:01:57;;;;;;;10.77;4.80;;;;;;;9.90;60.55;99285.75;5017754;28;20182;-82
2023/12/27 01:04:52;;;;;;;7.17;4.17;;;;;;;10.24;59.72;99287.69;5036350;28;20206;-82
2023/12/27 01:07:22;;;;;;;9.30;4.00;;;;;;;10.50;58.45;99299.50;5036614;28;20162;-83
2023/12/27 01:09:49;;;;;;;9.67;3.87;;;;;;;10.47;58.04;99303.09;5036147;28;20178;-83
2023/12/27 01:12:16;;;;;;;8.97;4.40;;;;;;;10.28;58.57;99301.44;5036203;28;20183;-83
2023/12/27 01:14:43;;;;;;;9.63;4.03;;;;;;;10.30;58.36;99297.84;5018748;28;20175;-83
2023/12/27 01:17:10;;;;;;;10.37;4.43;;;;;;;10.14;58.74;99286.41;5036384;28;20193;-82
2023/12/27 01:19:35;;;;;;;8.20;3.47;;;;;;;10.13;58.78;99295.19;5018698;28;20226;-82
2023/12/27 01:22:19;;;;;;;8.63;3.97;;;;;;;9.95;59.18;99296.03;5035967;28;20654;-83
2023/12/27 01:25:15;;;;;;;15.10;4.70;;;;;;;9.75;60.33;99294.34;5036362;28;20201;-82
2023/12/27 01:27:40;;;;;;;10.73;4.43;;;;;;;9.93;60.16;99287.44;5036352;28;20201;-83
2023/12/27 01:30:37;;;;;;;11.97;4.83;;;;;;;9.86;59.64;99293.84;5035876;28;20182;-83
2023/12/27 01:33:03;;;;;;;32.70;10.70;;;;;;;9.77;59.34;99296.91;5024235;28;20295;-83
2023/12/27 01:36:09;;;;;;;15.20;6.00;;;;;;;9.70;59.82;99291.09;5036223;28;20184;-83
2023/12/27 01:38:35;;;;;;;11.10;5.13;;;;;;;9.78;59.07;99288.13;5035540;28;20190;-82
2023/12/27 01:41:28;;;;;;;11.07;4.77;;;;;;;9.50;59.29;99299.03;5034697;28;20225;-82
2023/12/27 01:43:55;;;;;;;15.33;6.37;;;;;;;9.22;60.35;99288.94;5033957;28;20177;-82
2023/12/27 01:46:21;;;;;;;9.87;4.23;;;;;;;9.16;60.61;99289.25;5018184;28;20185;-82
2023/12/27 01:48:47;;;;;;;12.53;5.33;;;;;;;9.11;60.38;99288.59;5018150;28;20213;-83
2023/12/27 01:51:14;;;;;;;10.57;5.03;;;;;;;9.05;60.57;99288.00;5035556;28;20222;-82
2023/12/27 01:53:41;;;;;;;8.53;4.33;;;;;;;8.92;60.95;99287.69;5035470;28;20184;-82
2023/12/27 01:56:08;;;;;;;11.80;5.57;;;;;;;8.81;61.55;99287.31;5017918;28;20191;-82
2023/12/27 01:58:35;;;;;;;12.50;4.90;;;;;;;8.83;62.15;99290.69;5035790;28;20525;-83
2023/12/27 02:01:00;;;;;;;18.47;7.70;;;;;;;8.67;62.52;99289.66;5035282;28;20204;-83
2023/12/27 02:03:26;;;;;;;11.57;6.00;;;;;;;8.66;62.60;99285.34;5035642;28;20221;-83
2023/12/27 02:05:56;;;;;;;21.17;7.87;;;;;;;8.65;62.77;99283.63;5035398;28;20207;-82
2023/12/27 02:08:23;;;;;;;14.97;4.97;;;;;;;8.54;63.10;99291.91;5035513;28;20183;-82
2023/12/27 02:10:48;;;;;;;7.70;3.17;;;;;;;8.60;63.18;99289.06;5035267;28;20260;-82
2023/12/27 02:13:15;;;;;;;12.10;5.30;;;;;;;8.60;63.36;99296.91;5034070;28;20693;-82
2023/12/27 02:15:42;;;;;;;13.90;6.17;;;;;;;8.45;64.32;99296.69;5035329;28;20172;-82
2023/12/27 02:18:09;;;;;;;9.13;3.97;;;;;;;8.56;63.96;99303.19;5017656;28;20291;-82
2023/12/27 02:20:35;;;;;;;6.03;2.63;;;;;;;8.46;64.13;99301.03;5017560;28;20226;-82
2023/12/27 02:23:06;;;;;;;11.47;3.23;;;;;;;8.40;64.69;99302.13;5017545;28;20645;-82
2023/12/27 02:25:36;;;;;;;5.77;2.80;;;;;;;8.36;66.41;99299.69;5035572;28;20272;-82
2023/12/27 02:28:02;;;;;;;6.93;3.00;;;;;;;8.49;66.22;99300.91;5035049;28;20342;-83
2023/12/27 02:30:28;;;;;;;4.87;2.47;;;;;;;8.61;66.13;99297.75;5017567;28;20685;-82
2023/12/27 02:32:54;;;;;;;10.20;2.33;;;;;;;8.56;67.20;99304.94;5017232;28;20236;-82
2023/12/27 02:35:20;;;;;;;4.67;2.20;;;;;;;8.73;67.06;99299.84;5034991;28;20185;-82
2023/12/27 02:37:46;;;;;;;2.70;1.37;;;;;;;8.86;67.27;99301.03;5017087;28;20264;-82
2023/12/27 02:40:13;;;;;;;3.37;1.93;;;;;;;8.96;67.92;99301.50;5017386;28;20193;-82
2023/12/27 02:42:40;;;;;;;5.50;2.67;;;;;;;8.97;67.46;99298.78;5034787;28;20200;-82
2023/12/27 02:45:06;;;;;;;7.73;2.43;;;;;;;9.09;66.12;99303.47;5034438;28;20557;-82
2023/12/27 02:47:33;;;;;;;5.03;2.00;;;;;;;8.91;66.67;99306.88;5034923;28;20189;-82
2023/12/27 02:50:00;;;;;;;9.03;3.10;;;;;;;8.70;68.06;99302.56;5034537;28;20189;-82
2023/12/27 02:52:27;;;;;;;9.63;2.03;;;;;;;8.86;67.93;99301.03;5034501;28;20178;-82
2023/12/27 02:54:55;;;;;;;12.57;3.13;;;;;;;8.95;68.10;99303.25;5034655;28;20231;-82
2023/12/27 02:57:22;;;;;;;8.27;2.27;;;;;;;8.97;68.02;99314.47;5016915;28;20174;-82
2023/12/27 02:59:47;;;;;;;3.17;1.50;;;;;;;9.19;67.76;99314.41;5034325;28;20232;-82
2023/12/27 03:02:14;;;;;;;5.63;2.23;;;;;;;9.27;67.98;99318.38;5034990;28;20185;-82
2023/12/27 03:04:40;;;;;;;7.00;1.90;;;;;;;9.44;67.21;99330.69;5034313;28;20196;-82
2023/12/27 03:07:07;;;;;;;8.00;2.40;;;;;;;9.42;67.63;99329.06;5034708;28;20178;-82
2023/12/27 03:09:33;;;;;;;8.43;2.70;;;;;;;9.40;67.42;99334.38;5016858;28;20196;-82
2023/12/27 03:12:00;;;;;;;7.23;2.37;;;;;;;9.48;66.87;99328.81;5034187;28;20535;-82
2023/12/27 03:14:27;;;;;;;8.00;3.07;;;;;;;9.48;67.55;99336.66;5034721;28;20200;-82
2023/12/27 03:16:53;;;;;;;6.17;3.07;;;;;;;9.40;67.72;99339.63;5034388;28;20200;-82
2023/12/27 03:19:19;;;;;;;7.87;3.73;;;;;;;9.36;67.60;99335.41;5033692;28;20578;-82
2023/12/27 03:21:45;;;;;;;9.80;3.77;;;;;;;9.46;67.57;99338.50;5016520;28;20245;-82
2023/12/27 03:24:10;;;;;;;9.10;2.70;;;;;;;9.61;66.85;99337.78;5033818;28;20177;-82
2023/12/27 03:26:37;;;;;;;5.63;2.60;;;;;;;9.59;67.26;99340.47;5033947;28;20191;-82
2023/12/27 03:29:03;;;;;;;11.90;2.40;;;;;;;9.64;66.81;99342.91;5016190;28;20581;-82
2023/12/27 03:31:30;;;;;;;11.63;2.37;;;;;;;9.65;66.50;99340.19;5034115;28;20188;-82
2023/12/27 03:33:58;;;;;;;5.83;2.43;;;;;;;9.61;66.89;99348.25;5034094;28;20174;-82
2023/12/27 03:36:26;;;;;;;7.20;2.00;;;;;;;9.59;66.57;99356.16;5033399;28;20190;-82
2023/12/27 03:38:51;;;;;;;5.53;2.40;;;;;;;9.61;66.95;99356.13;5034224;28;20185;-82
2023/12/27 03:41:18;;;;;;;4.60;2.20;;;;;;;9.55;66.77;99352.00;5033814;28;20249;-82
2023/12/27 03:43:45;;;;;;;6.50;1.97;;;;;;;9.58;66.92;99357.09;5033827;28;20669;-82
2023/12/27 03:46:11;;;;;;;8.70;2.60;;;;;;;9.60;66.60;99357.03;5034102;28;20304;-82
2023/12/27 03:48:38;;;;;;;7.83;2.53;;;;;;;9.59;66.52;99371.03;5034118;28;20185;-82
2023/12/27 03:51:04;;;;;;;9.87;3.13;;;;;;;9.59;66.33;99365.81;5015928;28;20623;-82
2023/12/27 03:53:31;;;;;;;11.93;2.90;;;;;;;9.60;65.92;99357.88;5033790;28;20182;-82
2023/12/27 03:55:57;;;;;;;11.90;3.57;;;;;;;9.54;65.83;99357.31;5033594;28;20590;-82
2023/12/27 03:58:24;;;;;;;8.13;3.40;;;;;;;9.50;65.12;99359.22;5033389;28;20201;-82
2023/12/27 04:00:49;;;;;;;9.33;4.13;;;;;;;9.42;65.50;99369.16;5033571;28;20645;-82
2023/12/27 04:03:17;;;;;;;13.27;3.77;;;;;;;9.39;65.83;99371.06;5033386;28;20242;-82
2023/12/27 04:05:42;;;;;;;7.13;4.17;;;;;;;9.33;65.86;99374.78;5033685;28;20208;-82
2023/12/27 04:08:08;;;;;;;8.20;3.23;;;;;;;9.25;65.49;99372.50;5033331;28;20190;-82
2023/12/27 04:10:34;;;;;;;5.47;2.87;;;;;;;9.11;66.45;99369.66;5033226;28;20184;-82
2023/12/27 04:13:01;;;;;;;11.10;3.30;;;;;;;9.15;66.25;99373.81;5033670;28;20210;-82
2023/12/27 04:15:26;;;;;;;5.03;2.57;;;;;;;9.09;66.52;99379.31;5033514;28;20166;-82
2023/12/27 04:17:53;;;;;;;19.10;3.67;;;;;;;9.06;66.85;99382.06;5033122;28;20652;-82
2023/12/27 04:20:19;;;;;;;5.70;2.87;;;;;;;9.07;67.03;99378.53;5033391;28;20314;-82
2023/12/27 04:22:45;;;;;;;6.63;2.47;;;;;;;9.09;67.22;99389.75;5033637;28;20186;-82
2023/12/27 04:25:12;;;;;;;4.57;2.47;;;;;;;9.05;67.32;99390.81;5033185;28;20223;-82
2023/12/27 04:27:38;;;;;;;8.17;2.97;;;;;;;9.06;67.42;99386.44;5033496;28;20554;-82
2023/12/27 04:30:05;;;;;;;4.60;2.57;;;;;;;9.06;67.45;99389.94;5032540;28;20649;-82
2023/12/27 04:32:31;;;;;;;7.90;4.03;;;;;;;9.18;67.13;99391.16;5033051;28;20205;-82
2023/12/27 04:34:58;;;;;;;10.60;4.17;;;;;;;9.20;66.40;99390.16;5032775;28;20187;-82
2023/12/27 04:37:24;;;;;;;11.20;6.60;;;;;;;9.12;67.17;99399.25;5036603;28;20210;-82
2023/12/27 04:39:50;;;;;;;9.73;5.40;;;;;;;9.07;66.89;99394.22;5036800;28;20186;-82
2023/12/27 04:42:15;;;;;;;12.50;6.73;;;;;;;9.20;66.94;99398.00;5019535;28;20656;-82
2023/12/27 04:44:42;;;;;;;11.10;5.30;;;;;;;9.36;66.73;99390.34;5036694;28;20270;-82
2023/12/27 04:47:07;;;;;;;15.83;5.27;;;;;;;9.44;66.41;99387.41;5037033;28;20189;-83
2023/12/27 04:49:35;;;;;;;13.27;5.83;;;;;;;9.33;66.52;99387.88;5036953;28;20624;-82
2023/12/27 04:52:01;;;;;;;14.43;5.80;;;;;;;9.33;66.67;99389.66;5036699;28;20178;-82
2023/12/27 04:54:28;;;;;;;10.03;3.77;;;;;;;9.47;66.19;99403.81;5019395;28;20189;-82
2023/12/27 04:56:54;;;;;;;15.10;3.70;;;;;;;9.49;66.42;99398.50;5019261;28;20185;-82
2023/12/27 04:59:21;;;;;;;6.20;2.10;;;;;;;9.59;66.35;99402.44;5036363;28;20192;-82
2023/12/27 05:01:46;;;;;;;5.77;2.23;;;;;;;9.60;65.75;99398.88;5036558;28;20199;-82
2023/12/27 05:04:13;;;;;;;8.33;2.33;;;;;;;9.77;65.54;99410.31;5036173;28;20187;-82
2023/12/27 05:06:40;;;;;;;5.33;1.93;;;;;;;9.90;65.65;99421.09;5036158;28;20181;-82
2023/12/27 05:09:07;;;;;;;6.03;2.10;;;;;;;10.07;65.30;99415.06;5036110;28;20190;-82
2023/12/27 05:11:34;;;;;;;10.17;2.33;;;;;;;10.27;63.87;99421.09;5036763;28;20619;-82
2023/12/27 05:14:00;;;;;;;6.63;2.63;;;;;;;10.35;63.44;99424.22;5036442;28;20215;-82
2023/12/27 05:16:26;;;;;;;5.50;2.00;;;;;;;10.50;62.82;99443.63;5018133;28;20201;-82
2023/12/27 05:18:51;;;;;;;5.27;2.30;;;;;;;10.37;62.63;99443.38;5036137;28;20186;-82
2023/12/27 05:21:18;;;;;;;5.27;1.90;;;;;;;10.44;62.76;99455.25;5018682;28;20305;-82
2023/12/27 05:23:44;;;;;;;6.67;2.33;;;;;;;10.75;61.75;99446.78;5035628;28;20294;-82
2023/12/27 05:26:10;;;;;;;10.80;2.37;;;;;;;10.91;61.18;99452.13;5035695;28;20558;-82
2023/12/27 05:28:37;;;;;;;3.27;1.77;;;;;;;11.10;60.35;99459.03;5018478;28;20191;-82
2023/12/27 05:31:02;;;;;;;3.30;1.57;;;;;;;11.22;59.78;99462.78;5035320;28;20243;-82
2023/12/27 05:33:28;;;;;;;7.57;2.43;;;;;;;11.12;59.55;99466.81;5035835;28;20194;-82
2023/12/27 05:35:55;;;;;;;4.90;2.27;;;;;;;11.18;59.34;99460.41;5035688;28;20604;-82
2023/12/27 05:38:22;;;;;;;5.37;2.07;;;;;;;11.32;59.13;99465.81;5033115;28;20261;-82
2023/12/27 05:40:48;;;;;;;11.97;2.60;;;;;;;11.31;58.58;99457.09;5035696;28;20604;-82
2023/12/27 05:43:15;;;;;;;8.80;2.47;;;;;;;11.38;57.85;99461.09;5032811;28;20182;-83
2023/12/27 05:45:41;;;;;;;6.17;2.67;;;;;;;11.41;57.77;99463.56;5018057;28;20292;-82
2023/12/27 05:48:08;;;;;;;10.00;2.53;;;;;;;11.32;57.95;99466.66;5017061;28;20183;-82
2023/12/27 05:50:33;;;;;;;12.10;3.80;;;;;;;11.28;57.73;99469.50;5034984;28;20688;-82
2023/12/27 05:53:00;;;;;;;10.23;4.73;;;;;;;11.08;56.91;99484.44;5033702;28;20190;-82
2023/12/27 05:55:26;;;;;;;9.87;4.37;;;;;;;10.84;57.34;99492.69;5034977;28;20288;-82
2023/12/27 05:57:52;;;;;;;12.40;3.87;;;;;;;10.72;57.31;99498.50;5018507;28;20538;-83
2023/12/27 06:00:17;;;;;;;7.50;3.83;;;;;;;10.56;57.59;99508.03;5035556;28;20193;-83
2023/12/27 06:02:44;;;;;;;9.83;2.93;;;;;;;10.22;59.13;99499.06;5018104;28;20213;-82
2023/12/27 06:05:12;;;;;;;7.80;3.10;;;;;;;10.19;59.96;99504.47;5034834;28;20206;-82
2023/12/27 06:07:38;;;;;;;9.90;3.73;;;;;;;10.30;59.99;99504.81;5012534;28;20536;-83
2023/12/27 06:10:05;;;;;;;14.77;5.30;;;;;;;10.31;59.71;99506.53;5014953;28;20185;-83
2023/12/27 06:12:31;;;;;;;11.63;3.30;;;;;;;10.36;60.15;99504.53;5025157;28;20208;-82
2023/12/27 06:14:56;;;;;;;13.93;4.10;;;;;;;10.52;59.96;99520.41;5029188;28;20186;-82
2023/12/27 06:17:23;;;;;;;12.60;5.23;;;;;;;10.41;60.19;99518.28;5013383;28;20182;-82
2023/12/27 06:19:49;;;;;;;10.10;3.17;;;;;;;10.59;60.25;99513.09;5033064;28;20178;-82
2023/12/27 06:22:14;;;;;;;6.17;2.50;;;;;;;10.56;60.54;99521.13;5032541;28;20584;-83
2023/12/27 06:24:40;;;;;;;4.30;2.40;;;;;;;10.56;61.70;99521.13;5031905;28;20202;-82
2023/12/27 06:27:06;;;;;;;6.07;2.20;;;;;;;10.82;61.31;99515.50;5035206;28;20205;-83
2023/12/27 06:29:33;;;;;;;5.07;2.10;;;;;;;11.01;61.21;99519.78;5031891;28;20190;-83
2023/12/27 06:31:58;;;;;;;5.77;1.57;;;;;;;11.19;60.89;99520.66;5034627;28;20186;-83
2023/12/27 06:34:23;;;;;;;3.80;2.10;;;;;;;11.48;60.57;99520.06;5031706;28;20536;-84
2023/12/27 06:36:49;;;;;;;5.30;2.17;;;;;;;12.27;57.72;99516.00;5033962;28;20191;-84
2023/12/27 06:39:15;;;;;;;6.43;2.20;;;;;;;13.61;53.86;99507.53;5015306;28;20266;-84
2023/12/27 06:41:41;;;;;;;6.20;1.97;;;;;;;14.56;49.53;99508.75;5032542;28;20200;-84
2023/12/27 06:44:08;;;;;;;8.97;3.07;;;;;;;15.26;47.81;99505.91;5013723;28;20247;-84
2023/12/27 06:46:35;;;;;;;5.13;2.17;;;;;;;16.01;45.70;99500.88;5031224;28;21320;-84
2023/12/27 06:49:02;;;;;;;5.97;2.23;;;;;;;16.31;44.42;99512.81;5027297;28;20189;-85
2023/12/27 06:51:28;;;;;;;5.70;1.87;;;;;;;16.53;44.01;99509.56;5011308;28;20187;-86
2023/12/27 06:53:55;;;;;;;6.13;2.10;;;;;;;16.41;44.47;99515.66;5032189;28;20191;-85
2023/12/27 06:56:21;;;;;;;5.20;2.00;;;;;;;16.45;44.68;99525.94;5014768;28;20185;-85
2023/12/27 06:58:49;;;;;;;4.93;1.87;;;;;;;16.53;44.63;99534.19;5033228;28;20212;-85
2023/12/27 07:01:16;;;;;;;7.77;2.00;;;;;;;16.79;43.91;99536.81;5000357;28;20212;-85
2023/12/27 07:03:44;;;;;;;5.73;1.80;;;;;;;16.66;43.18;99533.34;5028539;28;20204;-85
2023/12/27 07:06:09;;;;;;;7.23;1.93;;;;;;;16.37;44.34;99543.28;5013543;28;20195;-86
2023/12/27 07:08:36;;;;;;;6.70;2.00;;;;;;;16.39;44.28;99544.03;5016317;28;20196;-87
2023/12/27 07:11:01;;;;;;;9.77;2.30;;;;;;;16.65;43.93;99550.16;5031125;28;20197;-85
2023/12/27 07:13:27;;;;;;;7.17;2.30;;;;;;;16.74;43.45;99552.19;5032996;28;20185;-85
2023/12/27 07:15:54;;;;;;;6.93;2.53;;;;;;;16.75;43.16;99545.91;5015960;28;20193;-86
2023/12/27 07:18:22;;;;;;;6.23;2.20;;;;;;;16.71;43.34;99547.94;5028326;28;20205;-87
2023/12/27 07:20:47;;;;;;;6.53;2.07;;;;;;;16.26;44.54;99551.13;5028767;28;20238;-86
2023/12/27 07:23:14;;;;;;;6.53;2.27;;;;;;;15.64;45.91;99577.38;5033512;28;20374;-85
2023/12/27 07:25:39;;;;;;;7.13;2.17;;;;;;;15.50;46.64;99576.59;5033377;28;20197;-85
2023/12/27 07:28:06;;;;;;;9.43;2.67;;;;;;;15.46;46.64;99583.84;5025095;28;20190;-86
2023/12/27 07:30:32;;;;;;;5.33;1.80;;;;;;;15.18;47.22;99582.13;5025524;28;20182;-86
2023/12/27 07:32:58;;;;;;;7.17;2.17;;;;;;;15.15;47.94;99592.88;5016244;28;20344;-87
2023/12/27 07:35:25;;;;;;;4.60;1.70;;;;;;;15.16;48.23;99593.75;5016246;28;20230;-85
2023/12/27 07:37:52;;;;;;;5.43;1.40;;;;;;;14.94;48.22;99604.81;5032621;28;20231;-86
2023/12/27 07:40:18;;;;;;;5.27;1.83;;;;;;;14.90;48.62;99602.47;5028529;28;20200;-85
2023/12/27 07:42:48;;;;;;;5.40;1.90;;;;;;;15.02;48.84;99613.09;5030576;28;20651;-87
2023/12/27 07:45:16;;;;;;;8.00;2.50;;;;;;;15.09;48.52;99597.72;5031219;28;20254;-84
2023/12/27 07:47:43;;;;;;;8.87;1.93;;;;;;;15.20;48.54;99606.66;5027077;28;20625;-85
2023/12/27 07:50:10;;;;;;;6.70;2.13;;;;;;;15.33;48.67;99612.84;5031141;28;20694;-85
2023/12/27 07:52:38;;;;;;;21.50;7.07;;;;;;;15.44;47.99;99611.28;5029558;28;20197;-85
2023/12/27 07:55:03;;;;;;;13.87;2.70;;;;;;;15.70;47.52;99615.75;5027007;28;20177;-85
2023/12/27 07:57:30;;;;;;;4.20;1.60;;;;;;;15.82;47.65;99612.31;5034043;28;20219;-85
2023/12/27 07:59:57;;;;;;;8.10;2.80;;;;;;;16.07;47.01;99620.28;5032464;28;20207;-85
2023/12/27 08:02:24;;;;;;;5.23;2.23;;;;;;;16.19;46.67;99613.34;5032764;28;20181;-85
2023/12/27 08:04:53;;;;;;;5.53;1.93;;;;;;;16.22;45.83;99616.59;5031260;28;20683;-85
2023/12/27 08:07:19;;;;;;;4.87;1.90;;;;;;;16.33;45.28;99619.38;5028456;28;20188;-85
2023/12/27 08:09:46;;;;;;;5.97;2.23;;;;;;;16.03;45.93;99624.09;5029846;28;20197;-85
2023/12/27 08:12:11;;;;;;;4.53;1.60;;;;;;;15.95;46.19;99626.41;5030046;28;20186;-88
2023/12/27 08:14:36;;;;;;;6.80;2.23;;;;;;;16.05;46.06;99627.50;5030454;28;20247;-88
2023/12/27 08:17:02;;;;;;;9.53;2.30;;;;;;;16.11;46.13;99627.09;5028435;28;20856;-86
2023/12/27 08:19:28;;;;;;;5.13;2.17;;;;;;;16.28;45.97;99624.13;5030806;28;20223;-87
2023/12/27 08:21:55;;;;;;;8.40;2.27;;;;;;;16.56;45.33;99629.25;5024843;28;20241;-86
2023/12/27 08:24:20;;;;;;;5.67;1.90;;;;;;;16.62;44.93;99638.56;5017934;28;20184;-86
2023/12/27 08:26:46;;;;;;;5.40;2.03;;;;;;;16.79;44.11;99629.47;5010137;28;20190;-86
2023/12/27 08:29:12;;;;;;;4.33;2.27;;;;;;;16.86;44.21;99633.38;4992768;28;20222;-87
2023/12/27 08:31:37;;;;;;;5.97;2.10;;;;;;;16.98;44.78;99645.75;5020033;28;20220;-86
2023/12/27 08:34:04;;;;;;;5.40;1.80;;;;;;;17.12;43.70;99643.81;5010263;28;20191;-87
2023/12/27 08:36:32;;;;;;;4.93;2.27;;;;;;;17.17;43.22;99646.13;4986630;28;20188;-87
2023/12/27 08:38:58;;;;;;;8.03;2.50;;;;;;;17.33;42.95;99641.44;5000735;28;20631;-86
2023/12/27 08:41:24;;;;;;;9.53;2.40;;;;;;;17.11;42.79;99644.75;5019721;28;20197;-86
2023/12/27 08:43:52;;;;;;;6.47;2.40;;;;;;;17.15;43.24;99656.00;5021206;28;20193;-85
2023/12/27 08:46:20;;;;;;;5.40;2.07;;;;;;;17.07;42.97;99653.03;5016193;28;20210;-86
2023/12/27 08:48:48;;;;;;;9.60;2.17;;;;;;;17.25;43.46;99642.94;5017917;28;20247;-86
2023/12/27 08:51:14;;;;;;;6.30;2.43;;;;;;;17.44;42.58;99641.50;5012018;28;20215;-85
2023/12/27 08:53:42;;;;;;;6.00;2.73;;;;;;;17.63;42.24;99652.50;5013660;28;20645;-85
2023/12/27 08:56:08;;;;;;;6.30;2.67;;;;;;;17.55;42.10;99641.63;5012157;28;20386;-86
2023/12/27 08:58:34;;;;;;;5.77;2.80;;;;;;;17.70;42.17;99651.09;4999021;28;20186;-87
2023/12/27 09:01:01;;;;;;;7.50;2.83;;;;;;;17.27;42.38;99655.09;5015471;28;20197;-87
2023/12/27 09:03:28;;;;;;;7.10;3.00;;;;;;;17.02;43.07;99657.81;5018851;28;20189;-87
2023/12/27 09:05:53;;;;;;;5.97;2.30;;;;;;;17.00;43.28;99649.16;5000307;28;20276;-87
2023/12/27 09:08:19;;;;;;;7.53;2.93;;;;;;;17.28;42.45;99654.16;4990757;28;20646;-87
2023/12/27 09:10:47;;;;;;;6.30;2.60;;;;;;;17.41;42.21;99644.38;5024922;28;20232;-87
2023/12/27 09:13:13;;;;;;;6.60;2.53;;;;;;;17.30;42.45;99646.09;5006802;28;20202;-87
2023/12/27 09:15:38;;;;;;;7.53;2.60;;;;;;;17.44;42.58;99638.84;4997420;28;20182;-87
2023/12/27 09:18:04;;;;;;;13.03;3.10;;;;;;;17.38;42.60;99634.00;5017646;28;20589;-87
2023/12/27 09:20:34;;;;;;;4.20;2.33;;;;;;;17.43;42.51;99634.50;5017355;28;20680;-87
2023/12/27 09:23:04;;;;;;;9.57;3.03;;;;;;;17.51;42.63;99626.00;5030463;28;20243;-87
2023/12/27 09:25:29;;;;;;;8.87;2.60;;;;;;;17.48;42.83;99635.00;5016703;28;20210;-88
2023/12/27 09:27:56;;;;;;;6.33;2.70;;;;;;;17.51;42.80;99628.63;5017913;28;20258;-87
2023/12/27 09:30:22;;;;;;;7.37;2.33;;;;;;;17.58;42.17;99624.63;4999521;28;20633;-88
2023/12/27 09:32:48;;;;;;;6.00;2.37;;;;;;;17.69;42.30;99611.41;5035160;28;20280;-87
2023/12/27 09:35:13;;;;;;;10.47;2.70;;;;;;;17.69;42.27;99614.91;5035424;28;20197;-86
2023/12/27 09:37:42;;;;;;;8.20;2.83;;;;;;;17.58;42.66;99612.19;5034855;28;20181;-87
2023/12/27 09:40:08;;;;;;;6.33;2.57;;;;;;;17.78;42.74;99611.59;5004392;28;20187;-87
2023/12/27 09:42:37;;;;;;;6.73;2.37;;;;;;;18.03;42.05;99607.94;5034919;28;20659;-87
2023/12/27 09:45:06;;;;;;;10.73;2.83;;;;;;;17.97;42.80;99604.91;5034876;28;20218;-87
2023/12/27 09:47:33;;;;;;;9.93;3.03;;;;;;;18.07;42.10;99593.50;5034231;28;20269;-87
2023/12/27 09:50:04;;;;;;;8.33;2.60;;;;;;;18.15;41.67;99592.91;5034353;28;20186;-86
2023/12/27 09:52:33;;;;;;;6.87;2.53;;;;;;;18.36;41.93;99596.56;5034261;28;20175;-86
2023/12/27 09:55:01;;;;;;;10.20;3.37;;;;;;;18.50;41.90;99585.75;5034461;28;20218;-86
2023/12/27 09:57:30;;;;;;;7.93;3.37;;;;;;;18.74;41.60;99586.47;5029675;28;20190;-85
2023/12/27 10:00:05;;;;;;;9.60;2.47;;;;;;;18.89;40.77;99585.25;5012194;28;20555;-86
2023/12/27 10:02:34;;;;;;;8.67;3.30;;;;;;;19.11;40.44;99578.22;5034543;28;20593;-86
2023/12/27 10:05:16;;;;;;;6.17;2.30;;;;;;;18.91;40.58;99580.69;5033788;28;20243;-86
2023/12/27 10:07:42;;;;;;;13.50;3.83;;;;;;;19.27;40.74;99591.97;5013476;28;20196;-86
2023/12/27 10:10:09;;;;;;;9.57;3.67;;;;;;;19.30;39.84;99579.28;5033130;28;20193;-88
2023/12/27 10:12:35;;;;;;;6.53;2.43;;;;;;;19.42;40.41;99582.78;5016519;28;20236;-87
2023/12/27 10:15:01;;;;;;;11.10;2.53;;;;;;;19.49;40.12;99568.88;5032808;28;20178;-88
2023/12/27 10:17:27;;;;;;;6.27;2.33;;;;;;;19.55;40.22;99578.13;5010242;28;20247;-88
2023/12/27 10:19:53;;;;;;;8.80;2.23;;;;;;;19.65;40.03;99568.47;5015803;28;20636;-88
2023/12/27 10:22:20;;;;;;;7.83;2.40;;;;;;;19.95;39.31;99565.03;5032708;28;20201;-87
2023/12/27 10:24:46;;;;;;;4.57;2.57;;;;;;;19.89;39.03;99558.41;5015764;28;20296;-87
2023/12/27 10:27:14;;;;;;;7.23;2.43;;;;;;;20.06;39.05;99562.31;5029825;28;20209;-88
2023/12/27 10:29:48;;;;;;;6.10;2.30;;;;;;;20.18;39.08;99559.44;5014713;28;20191;-87
2023/12/27 10:32:16;;;;;;;7.40;2.77;;;;;;;20.35;38.68;99552.72;5032752;28;20261;-86
2023/12/27 10:34:43;;;;;;;10.60;3.20;;;;;;;20.72;38.22;99537.91;5011518;28;20656;-89
2023/12/27 10:37:12;;;;;;;8.90;2.00;;;;;;;20.90;38.28;99543.44;5032610;28;20633;-87
2023/12/27 10:39:45;;;;;;;7.10;2.10;;;;;;;20.83;37.39;99548.44;5033425;28;20190;-87
2023/12/27 10:42:16;;;;;;;8.57;2.20;;;;;;;21.00;37.45;99541.63;5034320;28;20634;-88
2023/12/27 10:44:46;;;;;;;5.80;1.60;;;;;;;21.03;36.60;99533.34;5034599;28;20199;-88
2023/12/27 10:47:19;;;;;;;7.90;1.77;;;;;;;21.26;36.29;99534.84;5017317;28;20210;-87
2023/12/27 10:49:47;;;;;;;8.53;2.23;;;;;;;21.50;35.44;99530.91;5017714;28;20255;-88
2023/12/27 10:52:15;;;;;;;6.47;2.70;;;;;;;21.67;35.48;99533.72;5034947;28;20649;-88
2023/12/27 10:54:47;;;;;;;7.67;2.27;;;;;;;21.47;35.90;99541.88;5034603;28;20208;-88
2023/12/27 10:57:23;;;;;;;9.77;2.93;;;;;;;21.51;35.86;99540.63;5034537;28;20248;-88
2023/12/27 10:59:50;;;;;;;8.03;2.93;;;;;;;21.71;36.67;99532.47;5034103;28;20528;-88
2023/12/27 11:02:17;;;;;;;7.03;3.13;;;;;;;21.71;36.30;99523.63;5016743;28;20567;-88
2023/12/27 11:04:46;;;;;;;8.27;3.27;;;;;;;21.73;36.35;99514.50;5016880;28;20198;-88
2023/12/27 11:07:15;;;;;;;9.47;2.77;;;;;;;21.81;35.81;99511.09;5034131;28;20609;-88
2023/12/27 11:09:45;;;;;;;8.80;2.70;;;;;;;21.93;35.64;99510.03;5028794;28;20178;-88
2023/12/27 11:12:11;;;;;;;8.23;2.60;;;;;;;22.14;34.59;99516.00;5019850;28;20186;-88
2023/12/27 11:14:39;;;;;;;6.17;2.17;;;;;;;22.11;34.13;99510.09;5025304;28;20225;-88
2023/12/27 11:17:07;;;;;;;5.90;2.20;;;;;;;22.04;34.21;99520.50;5014222;28;20182;-87
2023/12/27 11:19:35;;;;;;;3.20;1.33;;;;;;;21.84;33.46;99513.50;5033068;28;20186;-90
2023/12/27 11:22:02;;;;;;;6.90;2.03;;;;;;;22.08;34.35;99503.22;5015723;28;20294;-89
2023/12/27 11:24:27;;;;;;;4.87;1.70;;;;;;;22.25;34.10;99499.78;5032825;28;20626;-88
2023/12/27 11:27:01;;;;;;;6.27;2.00;;;;;;;22.25;34.11;99490.97;5011824;28;20186;-88
2023/12/27 11:29:29;;;;;;;3.83;1.80;;;;;;;22.20;33.68;99504.72;5015395;28;20178;-87
2023/12/27 11:31:57;;;;;;;2.80;0.90;;;;;;;21.97;32.71;99514.06;5038030;28;20196;-88
2023/12/27 11:34:22;;;;;;;2.67;1.30;;;;;;;21.93;32.49;99513.50;5041844;28;20227;-89